Time;durP1;ratioP1;P1;durP2;ratioP2;P2;SDS_P1;SDS_P2;PMS_P1;PMS_P2;Temp;Humidity;BMP_temperature;BMP_pressure;BME280_temperature;BME280_humidity;BME280_pressure;Samples;Min_cycle;Max_cycle;Signal;HPM_P1;HPM_P2
2022/12/03 00:00:18;;;;;;;30.95;17.25;;;3.70;99.90;;;;;;5061617;28;20086;-62
2022/12/03 00:02:43;;;;;;;30.50;17.27;;;3.70;99.90;;;;;;5060294;28;20043;-62
2022/12/03 00:05:09;;;;;;;33.08;17.35;;;3.70;99.90;;;;;;5061726;28;20036;-61
2022/12/03 00:07:35;;;;;;;31.10;17.15;;;3.70;99.90;;;;;;5075287;28;20036;-62
2022/12/03 00:10:01;;;;;;;29.00;15.65;;;3.70;99.90;;;;;;5058115;28;20125;-62
2022/12/03 00:12:27;;;;;;;27.95;15.70;;;3.60;99.90;;;;;;5047713;28;20041;-63
2022/12/03 00:14:52;;;;;;;27.70;14.13;;;3.70;99.90;;;;;;5056657;28;20127;-63
2022/12/03 00:17:18;;;;;;;26.92;14.43;;;3.70;99.90;;;;;;5059250;28;20040;-62
2022/12/03 00:19:44;;;;;;;27.17;13.15;;;3.70;99.90;;;;;;5062009;28;20131;-64
2022/12/03 00:22:10;;;;;;;24.08;12.80;;;3.70;99.90;;;;;;5063811;28;20037;-64
2022/12/03 00:24:35;;;;;;;27.83;12.43;;;3.70;99.90;;;;;;5059985;28;20045;-62
2022/12/03 00:27:01;;;;;;;23.05;12.18;;;3.70;99.90;;;;;;5051994;28;20044;-62
2022/12/03 00:29:27;;;;;;;22.10;10.80;;;3.80;99.90;;;;;;5062696;28;20480;-63
2022/12/03 00:31:52;;;;;;;20.08;10.18;;;3.80;99.90;;;;;;5060261;28;20100;-63
2022/12/03 00:34:18;;;;;;;18.92;10.73;;;3.80;99.90;;;;;;5055208;28;20039;-62
2022/12/03 00:36:44;;;;;;;16.10;9.55;;;3.80;99.90;;;;;;5047096;28;20033;-63
2022/12/03 00:39:10;;;;;;;18.52;10.88;;;3.90;99.90;;;;;;5049056;28;20084;-62
2022/12/03 00:41:35;;;;;;;16.08;9.43;;;3.90;99.90;;;;;;5075501;28;20084;-62
2022/12/03 00:44:01;;;;;;;17.63;9.85;;;4.00;99.90;;;;;;5059069;28;20394;-62
2022/12/03 00:46:27;;;;;;;17.65;9.43;;;4.00;99.90;;;;;;5057396;28;20518;-63
2022/12/03 00:48:52;;;;;;;18.00;9.85;;;3.90;99.90;;;;;;5055840;28;20593;-64
2022/12/03 00:51:18;;;;;;;15.32;9.30;;;4.00;99.90;;;;;;5045704;28;20040;-63
2022/12/03 00:53:44;;;;;;;16.77;9.10;;;4.00;99.90;;;;;;5046834;28;20051;-64
2022/12/03 00:56:10;;;;;;;19.55;9.32;;;4.00;99.90;;;;;;5059318;28;20038;-63
2022/12/03 00:58:35;;;;;;;15.88;9.10;;;3.90;99.90;;;;;;5049438;28;20484;-63
2022/12/03 01:01:01;;;;;;;17.27;10.20;;;4.00;99.90;;;;;;5021062;28;20032;-63
2022/12/03 01:03:27;;;;;;;14.63;8.77;;;4.00;99.90;;;;;;5054131;28;20075;-63
2022/12/03 01:05:53;;;;;;;17.02;9.63;;;4.00;99.90;;;;;;5060032;28;20227;-62
2022/12/03 01:08:18;;;;;;;15.98;9.77;;;4.10;99.90;;;;;;5057848;28;20048;-63
2022/12/03 01:10:44;;;;;;;19.35;9.85;;;4.10;99.90;;;;;;5057191;28;20044;-62
2022/12/03 01:13:10;;;;;;;18.30;9.55;;;4.10;99.90;;;;;;5059439;28;20051;-62
2022/12/03 01:15:36;;;;;;;15.55;9.85;;;4.10;99.90;;;;;;5060379;28;20037;-62
2022/12/03 01:18:01;;;;;;;19.92;9.73;;;4.20;99.90;;;;;;5041641;28;20679;-62
2022/12/03 01:20:27;;;;;;;18.65;10.02;;;4.20;99.90;;;;;;5060950;28;20560;-64
2022/12/03 01:22:53;;;;;;;17.67;10.00;;;4.20;99.90;;;;;;5064377;28;20055;-63
2022/12/03 01:25:19;;;;;;;19.30;9.50;;;4.20;99.90;;;;;;5046663;28;20040;-64
2022/12/03 01:27:44;;;;;;;18.45;9.88;;;4.20;99.90;;;;;;5059796;28;20046;-61
2022/12/03 01:30:11;;;;;;;16.33;9.82;;;4.20;99.90;;;;;;5063789;28;20101;-63
2022/12/03 01:32:37;;;;;;;16.40;9.43;;;4.20;99.90;;;;;;5063484;28;20081;-62
2022/12/03 01:35:03;;;;;;;17.02;10.30;;;4.20;99.90;;;;;;5056843;28;21346;-63
2022/12/03 01:37:29;;;;;;;15.10;9.25;;;4.20;99.90;;;;;;5054693;28;20637;-62
2022/12/03 01:39:55;;;;;;;16.70;9.88;;;4.20;99.90;;;;;;5043262;28;20044;-61
2022/12/03 01:42:24;;;;;;;16.45;9.35;;;4.20;99.90;;;;;;5061230;28;20129;-61
2022/12/03 01:44:56;;;;;;;16.95;10.38;;;4.20;99.90;;;;;;5062371;28;20033;-61
2022/12/03 01:47:28;;;;;;;18.83;10.02;;;4.20;99.90;;;;;;5065080;28;20044;-60
2022/12/03 01:50:00;;;;;;;16.13;9.57;;;4.20;99.90;;;;;;5060890;28;20051;-62
2022/12/03 01:52:29;;;;;;;18.67;10.18;;;4.10;99.90;;;;;;5043226;28;20055;-62
2022/12/03 01:54:58;;;;;;;16.00;9.93;;;4.10;99.90;;;;;;5058157;28;22359;-62
2022/12/03 01:57:23;;;;;;;18.05;9.98;;;4.20;99.90;;;;;;5065670;28;20502;-62
2022/12/03 01:59:50;;;;;;;21.75;11.27;;;4.10;99.90;;;;;;5059153;28;20033;-63
2022/12/03 02:02:26;;;;;;;18.55;10.65;;;4.20;99.90;;;;;;5062542;28;20032;-60
2022/12/03 02:04:52;;;;;;;20.90;10.50;;;4.20;99.90;;;;;;5062557;28;20041;-61
2022/12/03 02:07:31;;;;;;;17.38;10.50;;;4.20;99.90;;;;;;5056795;28;20084;-63
2022/12/03 02:09:59;;;;;;;18.70;10.70;;;4.20;99.90;;;;;;5059520;28;20037;-62
2022/12/03 02:12:55;;;;;;;18.55;10.30;;;4.20;99.90;;;;;;5062352;28;20044;-62
2022/12/03 02:15:21;;;;;;;16.45;10.13;;;4.30;99.90;;;;;;5056715;28;20060;-62
2022/12/03 02:17:47;;;;;;;17.02;10.55;;;4.30;99.90;;;;;;5058334;28;20127;-62
2022/12/03 02:20:13;;;;;;;17.95;10.23;;;4.30;99.90;;;;;;5079405;28;20166;-63
2022/12/03 02:22:50;;;;;;;17.58;9.50;;;4.30;99.90;;;;;;5045120;28;20105;-63
2022/12/03 02:25:23;;;;;;;19.23;10.77;;;4.30;99.90;;;;;;5057370;28;20646;-61
2022/12/03 02:27:49;;;;;;;19.42;10.15;;;4.30;99.90;;;;;;5058183;28;20458;-62
2022/12/03 02:30:18;;;;;;;18.92;10.55;;;4.30;99.90;;;;;;5061335;28;20063;-63
2022/12/03 02:32:44;;;;;;;18.60;10.48;;;4.30;99.90;;;;;;5060331;28;20047;-63
2022/12/03 02:35:19;;;;;;;18.17;10.68;;;4.30;99.90;;;;;;5060493;28;20045;-61
2022/12/03 02:37:48;;;;;;;19.90;10.57;;;4.30;99.90;;;;;;5066104;28;20028;-63
2022/12/03 02:40:19;;;;;;;18.90;10.55;;;4.30;99.90;;;;;;5061575;28;20075;-63
2022/12/03 02:42:45;;;;;;;17.13;10.50;;;4.30;99.90;;;;;;5041890;28;20129;-62
2022/12/03 02:45:16;;;;;;;18.33;10.70;;;4.30;99.90;;;;;;5060209;28;20383;-62
2022/12/03 02:47:52;;;;;;;17.95;10.15;;;4.30;99.90;;;;;;5065842;28;20036;-62
2022/12/03 02:50:23;;;;;;;17.05;10.73;;;4.30;99.90;;;;;;5061524;28;20036;-62
2022/12/03 02:52:51;;;;;;;16.52;10.15;;;4.30;99.90;;;;;;5067092;28;20410;-61
2022/12/03 02:55:18;;;;;;;17.55;9.90;;;4.30;99.90;;;;;;5066965;28;20518;-62
2022/12/03 02:57:46;;;;;;;16.23;10.50;;;4.30;99.90;;;;;;5070683;28;20086;-60
2022/12/03 03:00:13;;;;;;;17.90;10.20;;;4.20;99.90;;;;;;5041687;28;20273;-62
2022/12/03 03:02:40;;;;;;;17.00;10.18;;;4.20;99.90;;;;;;5061323;28;20051;-61
2022/12/03 03:05:08;;;;;;;22.00;11.85;;;4.20;99.90;;;;;;5061889;28;20041;-62
2022/12/03 03:07:35;;;;;;;18.67;10.73;;;4.20;99.90;;;;;;5057552;28;20399;-63
2022/12/03 03:10:01;;;;;;;18.02;11.05;;;4.30;99.90;;;;;;5058975;28;20663;-63
2022/12/03 03:12:27;;;;;;;18.55;10.93;;;4.30;99.90;;;;;;5058513;28;20294;-61
2022/12/03 03:14:53;;;;;;;19.45;10.90;;;4.30;99.90;;;;;;5059328;28;20157;-61
2022/12/03 03:17:19;;;;;;;18.30;10.63;;;4.30;99.90;;;;;;5061031;28;20040;-62
2022/12/03 03:19:45;;;;;;;19.48;11.20;;;4.30;99.90;;;;;;5060633;28;20387;-62
2022/12/03 03:22:11;;;;;;;19.20;12.27;;;4.30;99.90;;;;;;5060920;28;20048;-61
2022/12/03 03:24:37;;;;;;;20.05;11.57;;;4.30;99.90;;;;;;5057905;28;20081;-61
2022/12/03 03:27:03;;;;;;;23.63;11.43;;;4.30;99.90;;;;;;5061024;28;20048;-61
2022/12/03 03:29:30;;;;;;;19.85;11.27;;;4.30;99.90;;;;;;5045400;28;20040;-62
2022/12/03 03:31:57;;;;;;;19.95;11.50;;;4.30;99.90;;;;;;5049084;28;20580;-61
2022/12/03 03:34:23;;;;;;;22.67;12.65;;;4.30;99.90;;;;;;5065713;28;20033;-62
2022/12/03 03:36:49;;;;;;;26.10;12.93;;;4.40;99.90;;;;;;5065585;28;20212;-62
2022/12/03 03:39:15;;;;;;;19.25;11.73;;;4.40;99.90;;;;;;5062033;28;20041;-62
2022/12/03 03:41:43;;;;;;;20.98;11.98;;;4.40;99.90;;;;;;5063195;28;20033;-63
2022/12/03 03:44:09;;;;;;;20.45;11.13;;;4.40;99.90;;;;;;5059882;28;20049;-63
2022/12/03 03:46:36;;;;;;;23.90;11.77;;;4.40;99.90;;;;;;5049987;28;20376;-63
2022/12/03 03:49:03;;;;;;;20.30;12.18;;;4.40;99.90;;;;;;5048029;28;20044;-61
2022/12/03 03:51:31;;;;;;;21.50;12.43;;;4.50;99.90;;;;;;5056269;28;20058;-63
2022/12/03 03:53:57;;;;;;;22.33;12.55;;;4.50;99.90;;;;;;5059879;28;20112;-62
2022/12/03 03:56:23;;;;;;;19.30;12.13;;;4.50;99.90;;;;;;5052838;28;20115;-62
2022/12/03 03:58:49;;;;;;;22.67;12.60;;;4.50;99.90;;;;;;5053649;28;20044;-63
2022/12/03 04:01:16;;;;;;;20.60;12.55;;;4.50;99.90;;;;;;5057450;28;20439;-63
2022/12/03 04:03:42;;;;;;;24.02;12.68;;;4.50;99.90;;;;;;5042838;28;20060;-63
2022/12/03 04:06:08;;;;;;;21.65;13.25;;;4.50;99.90;;;;;;5062362;28;20526;-64
2022/12/03 04:08:34;;;;;;;22.77;12.63;;;4.50;99.90;;;;;;5044549;28;20123;-61
2022/12/03 04:13:43;;;;;;;23.88;13.50;;;4.50;99.90;;;;;;5058971;28;20044;-62
2022/12/03 04:16:09;;;;;;;26.00;13.18;;;4.50;99.90;;;;;;5060770;28;20051;-62
2022/12/03 04:18:43;;;;;;;23.35;12.68;;;4.50;99.90;;;;;;5060185;28;20524;-63
2022/12/03 04:24:03;;;;;;;22.08;12.75;;;4.40;99.90;;;;;;5058630;28;20052;-62
2022/12/03 04:29:14;;;;;;;20.58;11.93;;;4.40;99.90;;;;;;5046242;28;20120;-63
2022/12/03 04:37:09;;;;;;;21.75;12.35;;;4.40;99.90;;;;;;5054230;28;20044;-62
2022/12/03 04:39:35;;;;;;;21.60;12.82;;;4.40;99.90;;;;;;5059956;28;20506;-62
2022/12/03 04:42:01;;;;;;;23.60;13.32;;;4.40;99.90;;;;;;5060313;28;20032;-61
2022/12/03 04:44:34;;;;;;;23.58;13.45;;;4.40;99.90;;;;;;5043224;28;20036;-62
2022/12/03 04:47:15;;;;;;;27.20;13.95;;;4.40;99.90;;;;;;5052700;28;20055;-62
2022/12/03 04:49:46;;;;;;;22.50;13.30;;;4.30;99.90;;;;;;5047242;28;20052;-62
2022/12/03 04:52:14;;;;;;;22.70;13.27;;;4.30;99.90;;;;;;5063509;28;20037;-62
2022/12/03 04:54:40;;;;;;;23.75;13.65;;;4.30;99.90;;;;;;5066444;28;20072;-61
2022/12/03 04:57:07;;;;;;;20.95;12.75;;;4.30;99.90;;;;;;5063257;28;20042;-61
2022/12/03 04:59:34;;;;;;;25.42;14.02;;;4.30;99.90;;;;;;5066484;28;20792;-62
2022/12/03 05:02:00;;;;;;;24.48;13.68;;;4.40;99.90;;;;;;5062144;28;20083;-61
2022/12/03 05:04:26;;;;;;;19.70;12.70;;;4.30;99.90;;;;;;5043880;28;20051;-62
2022/12/03 05:06:52;;;;;;;25.88;14.48;;;4.30;99.90;;;;;;5079264;28;20032;-63
2022/12/03 05:09:18;;;;;;;23.52;13.52;;;4.20;99.90;;;;;;5051168;28;20036;-62
2022/12/03 05:11:44;;;;;;;23.58;13.55;;;4.30;99.90;;;;;;5060516;28;20094;-62
2022/12/03 05:14:10;;;;;;;25.55;14.40;;;4.30;99.90;;;;;;5060493;28;20080;-62
2022/12/03 05:16:36;;;;;;;22.13;13.25;;;4.30;99.90;;;;;;5039531;28;20137;-62
2022/12/03 05:19:04;;;;;;;25.50;14.45;;;4.30;99.90;;;;;;5066069;28;20040;-63
2022/12/03 05:21:30;;;;;;;24.85;13.23;;;4.30;99.90;;;;;;5061736;28;20052;-63
2022/12/03 05:23:56;;;;;;;23.33;14.25;;;4.20;99.90;;;;;;5065302;28;20040;-63
2022/12/03 05:26:22;;;;;;;23.83;13.27;;;4.20;99.90;;;;;;5065983;28;20084;-61
2022/12/03 05:28:48;;;;;;;23.42;15.02;;;4.20;99.90;;;;;;5063199;28;20137;-62
2022/12/03 05:31:13;;;;;;;26.02;14.13;;;4.20;99.90;;;;;;5062497;28;20751;-63
2022/12/03 05:33:39;;;;;;;21.27;13.50;;;4.20;99.90;;;;;;5063244;28;20071;-62
2022/12/03 05:36:05;;;;;;;24.83;14.25;;;4.20;99.90;;;;;;5065667;28;20045;-61
2022/12/03 05:38:31;;;;;;;22.45;13.27;;;4.20;99.90;;;;;;5066256;28;20045;-61
2022/12/03 05:40:57;;;;;;;27.17;15.55;;;4.20;99.90;;;;;;5064527;28;20033;-60
2022/12/03 05:43:23;;;;;;;25.60;13.55;;;4.20;99.90;;;;;;5064491;28;20454;-62
2022/12/03 05:45:48;;;;;;;25.20;13.52;;;4.20;99.90;;;;;;5082823;28;20076;-62
2022/12/03 05:48:15;;;;;;;24.67;14.27;;;4.20;99.90;;;;;;5063590;28;20087;-62
2022/12/03 05:50:43;;;;;;;22.52;13.63;;;4.20;99.90;;;;;;5045059;28;20123;-62
2022/12/03 05:53:09;;;;;;;23.77;14.65;;;4.20;99.90;;;;;;5059212;28;20079;-62
2022/12/03 05:55:35;;;;;;;22.23;13.23;;;4.20;99.90;;;;;;5059344;28;20503;-63
2022/12/03 05:58:01;;;;;;;23.35;13.30;;;4.20;99.90;;;;;;5054709;28;20120;-61
2022/12/03 06:00:36;;;;;;;27.92;14.63;;;4.10;99.90;;;;;;5058620;28;20123;-62
2022/12/03 06:03:06;;;;;;;22.73;13.30;;;4.10;99.90;;;;;;5054215;28;20063;-61
2022/12/03 06:05:32;;;;;;;23.52;13.15;;;4.10;99.90;;;;;;5062725;28;20041;-61
2022/12/03 06:07:58;;;;;;;26.15;14.27;;;4.10;99.90;;;;;;5044671;28;20570;-62
2022/12/03 06:10:24;;;;;;;27.23;14.82;;;4.10;99.90;;;;;;5080624;28;20032;-62
2022/12/03 06:12:51;;;;;;;23.55;13.90;;;4.10;99.90;;;;;;5064044;28;20029;-62
2022/12/03 06:15:17;;;;;;;22.45;12.63;;;4.10;99.90;;;;;;5057666;28;20511;-63
2022/12/03 06:17:43;;;;;;;23.10;13.60;;;4.10;99.90;;;;;;5062546;28;20037;-61
2022/12/03 06:20:13;;;;;;;26.00;14.57;;;4.10;99.90;;;;;;5059316;28;20691;-63
2022/12/03 06:22:38;;;;;;;23.55;14.30;;;4.10;99.90;;;;;;5059325;28;20048;-63
2022/12/03 06:25:04;;;;;;;24.42;14.05;;;4.10;99.90;;;;;;5041664;28;20044;-62
2022/12/03 06:27:30;;;;;;;24.15;15.00;;;4.10;99.90;;;;;;5061401;28;20047;-62
2022/12/03 06:29:56;;;;;;;27.58;14.63;;;4.10;99.90;;;;;;5059990;28;20453;-60
2022/12/03 06:32:21;;;;;;;25.23;15.65;;;4.10;99.90;;;;;;5057012;28;20040;-63
2022/12/03 06:34:47;;;;;;;25.90;13.90;;;4.10;99.90;;;;;;5080965;22;20114;-59
2022/12/03 06:37:13;;;;;;;27.10;14.95;;;4.10;99.90;;;;;;5055015;28;20441;-59
2022/12/03 06:39:39;;;;;;;25.67;14.30;;;4.10;99.90;;;;;;5071375;28;20044;-59
2022/12/03 06:42:04;;;;;;;22.80;13.40;;;4.10;99.90;;;;;;5058505;28;20525;-59
2022/12/03 06:44:30;;;;;;;23.45;13.82;;;4.10;99.90;;;;;;5079452;28;20044;-59
2022/12/03 06:46:56;;;;;;;23.85;12.70;;;4.10;99.90;;;;;;5064541;28;20044;-58
2022/12/03 06:49:21;;;;;;;22.65;13.30;;;4.10;99.90;;;;;;5044429;28;20040;-59
2022/12/03 06:51:47;;;;;;;22.45;12.45;;;4.00;99.90;;;;;;5041391;28;20040;-59
2022/12/03 06:54:13;;;;;;;23.45;13.50;;;4.00;99.90;;;;;;5059226;28;20079;-59
2022/12/03 06:56:38;;;;;;;25.10;13.43;;;4.10;99.90;;;;;;5041625;28;20476;-59
2022/12/03 06:59:04;;;;;;;22.35;12.50;;;4.00;99.90;;;;;;5058205;28;20127;-59
2022/12/03 07:01:30;;;;;;;23.60;12.73;;;4.00;99.90;;;;;;5079091;28;20040;-59
2022/12/03 07:03:55;;;;;;;24.88;14.55;;;4.00;99.90;;;;;;5069439;28;20046;-59
2022/12/03 07:06:21;;;;;;;25.33;13.95;;;4.00;99.90;;;;;;5072110;28;20033;-58
2022/12/03 07:08:47;;;;;;;21.65;13.07;;;4.00;99.90;;;;;;5060455;28;20036;-58
2022/12/03 07:11:31;;;;;;;21.92;12.93;;;4.00;99.90;;;;;;5047053;28;20044;-59
2022/12/03 07:14:01;;;;;;;22.02;12.73;;;4.00;99.90;;;;;;5031621;28;20110;-57
2022/12/03 07:16:27;;;;;;;24.02;13.23;;;4.00;99.90;;;;;;5061842;28;20070;-58
2022/12/03 07:18:53;;;;;;;21.98;12.25;;;4.00;99.90;;;;;;5029593;28;20051;-58
2022/12/03 07:21:19;;;;;;;21.63;11.60;;;4.00;99.90;;;;;;5046011;28;20044;-59
2022/12/03 07:23:44;;;;;;;23.55;12.27;;;4.00;99.90;;;;;;5071593;28;20499;-59
2022/12/03 07:26:10;;;;;;;21.95;12.73;;;3.80;99.90;;;;;;5055628;28;20048;-59
2022/12/03 07:28:36;;;;;;;26.05;13.50;;;4.00;99.90;;;;;;5060186;28;20120;-59
2022/12/03 07:31:01;;;;;;;21.58;12.05;;;3.90;99.90;;;;;;5039684;28;20516;-58
2022/12/03 07:33:27;;;;;;;22.17;12.65;;;3.90;99.90;;;;;;5056111;28;20044;-59
2022/12/03 07:35:53;;;;;;;23.33;12.50;;;3.90;99.90;;;;;;5057687;28;20055;-58
2022/12/03 07:38:18;;;;;;;23.08;11.75;;;3.90;99.90;;;;;;5073009;28;20119;-58
2022/12/03 07:40:44;;;;;;;21.35;13.30;;;3.90;99.90;;;;;;5055467;28;20264;-57
2022/12/03 07:43:10;;;;;;;21.80;12.98;;;3.90;99.90;;;;;;5053654;28;20553;-58
2022/12/03 07:45:36;;;;;;;21.27;12.93;;;3.90;99.90;;;;;;5059858;28;20488;-56
2022/12/03 07:48:01;;;;;;;25.98;13.20;;;3.90;99.90;;;;;;5055252;28;20229;-58
2022/12/03 07:50:27;;;;;;;22.85;13.30;;;3.90;99.90;;;;;;5042574;28;20589;-57
2022/12/03 07:52:54;;;;;;;20.80;12.07;;;3.90;99.90;;;;;;5058096;28;20255;-56
2022/12/03 07:55:20;;;;;;;22.80;12.48;;;3.90;99.90;;;;;;5062934;28;20085;-57
2022/12/03 07:57:45;;;;;;;25.20;11.68;;;3.90;99.90;;;;;;5044310;28;20043;-57
2022/12/03 08:00:12;;;;;;;23.35;13.30;;;3.90;99.90;;;;;;5079452;28;20047;-58
2022/12/03 08:02:38;;;;;;;23.20;12.45;;;3.90;99.90;;;;;;5060325;28;20032;-59
2022/12/03 08:05:04;;;;;;;21.27;12.27;;;3.90;99.90;;;;;;5060205;28;20518;-57
2022/12/03 08:07:30;;;;;;;23.80;13.10;;;3.90;99.90;;;;;;5041574;28;20070;-59
2022/12/03 08:09:55;;;;;;;22.90;12.02;;;3.80;99.90;;;;;;5056271;28;20126;-58
2022/12/03 08:12:38;;;;;;;25.15;12.98;;;3.80;99.90;;;;;;5053635;28;20497;-57
2022/12/03 08:15:25;;;;;;;23.52;11.50;;;3.80;99.90;;;;;;5057705;28;20054;-56
2022/12/03 08:17:57;;;;;;;23.38;11.95;;;3.80;99.90;;;;;;5062172;28;20122;-55
2022/12/03 08:20:26;;;;;;;22.48;12.25;;;3.80;99.90;;;;;;5061621;28;20051;-58
2022/12/03 08:22:52;;;;;;;23.17;13.80;;;3.80;99.90;;;;;;5044006;28;20043;-57
2022/12/03 08:25:25;;;;;;;21.02;12.50;;;3.80;99.90;;;;;;5060597;28;20071;-54
2022/12/03 08:27:54;;;;;;;26.25;13.30;;;3.80;99.90;;;;;;5070883;28;20118;-57
2022/12/03 08:30:20;;;;;;;23.15;13.30;;;3.80;99.90;;;;;;5071230;28;20035;-57
2022/12/03 08:32:46;;;;;;;23.50;12.70;;;3.70;99.90;;;;;;5033536;28;20047;-57
2022/12/03 08:35:24;;;;;;;20.55;12.18;;;3.80;99.90;;;;;;5062672;28;20127;-57
2022/12/03 08:38:00;;;;;;;21.35;10.68;;;3.80;99.90;;;;;;5055074;28;20128;-56
2022/12/03 08:40:34;;;;;;;20.55;11.68;;;3.70;99.90;;;;;;5060056;28;20495;-56
2022/12/03 08:43:00;;;;;;;19.05;11.70;;;3.80;99.90;;;;;;5077064;28;20047;-58
2022/12/03 08:45:38;;;;;;;22.13;12.48;;;3.70;99.90;;;;;;5075307;28;20036;-56
2022/12/03 08:48:26;;;;;;;23.45;12.43;;;3.80;99.90;;;;;;5056090;28;20054;-57
2022/12/03 08:51:05;;;;;;;21.38;10.88;;;3.70;99.90;;;;;;5048758;28;20044;-59
2022/12/03 08:53:52;;;;;;;20.73;11.73;;;3.80;99.90;;;;;;5060080;28;20042;-58
2022/12/03 08:56:20;;;;;;;24.48;12.93;;;3.70;99.90;;;;;;5051939;28;20040;-57
2022/12/03 08:58:50;;;;;;;23.30;12.30;;;3.70;99.90;;;;;;5056386;28;20127;-56
2022/12/03 09:01:28;;;;;;;21.65;12.73;;;3.70;99.90;;;;;;5063249;28;20036;-53
2022/12/03 09:03:57;;;;;;;19.88;11.88;;;3.70;99.90;;;;;;5066016;28;20036;-56
2022/12/03 09:06:23;;;;;;;21.70;12.70;;;3.70;99.90;;;;;;5038577;28;20486;-57
2022/12/03 09:08:49;;;;;;;21.50;12.05;;;3.70;99.90;;;;;;5055198;28;20040;-57
2022/12/03 09:11:15;;;;;;;25.67;14.00;;;3.70;99.90;;;;;;5040105;28;20040;-58
2022/12/03 09:13:40;;;;;;;23.13;12.93;;;3.70;99.90;;;;;;5056396;28;20040;-57
2022/12/03 09:16:07;;;;;;;23.52;12.85;;;3.60;99.90;;;;;;5056512;28;20056;-58
2022/12/03 09:18:33;;;;;;;25.88;13.20;;;3.60;99.90;;;;;;5044050;28;20036;-58
2022/12/03 09:20:58;;;;;;;25.58;13.98;;;3.60;99.90;;;;;;5071596;28;20040;-59
2022/12/03 09:23:24;;;;;;;23.08;13.15;;;3.60;99.90;;;;;;5031360;28;20089;-58
2022/12/03 09:25:50;;;;;;;26.67;14.93;;;3.60;99.90;;;;;;5059764;28;20092;-58
2022/12/03 09:28:15;;;;;;;23.90;13.10;;;3.60;99.90;;;;;;5041111;28;20043;-58
2022/12/03 09:30:41;;;;;;;24.42;14.18;;;3.60;99.90;;;;;;5052524;28;20118;-58
2022/12/03 09:33:07;;;;;;;29.77;15.93;;;3.60;99.90;;;;;;5058039;28;20044;-57
2022/12/03 09:35:33;;;;;;;28.33;14.77;;;3.60;99.90;;;;;;5059407;28;20044;-57
2022/12/03 09:37:58;;;;;;;27.77;14.95;;;3.50;99.90;;;;;;5056675;28;20092;-58
2022/12/03 09:40:24;;;;;;;24.45;13.77;;;3.60;99.90;;;;;;5052516;28;20036;-58
2022/12/03 09:42:51;;;;;;;27.60;14.43;;;3.70;99.90;;;;;;5055655;28;20142;-58
2022/12/03 09:45:17;;;;;;;26.08;12.68;;;3.60;99.90;;;;;;5061856;28;20111;-58
2022/12/03 09:47:48;;;;;;;26.00;15.10;;;3.60;99.90;;;;;;5046166;28;21147;-58
2022/12/03 09:50:19;;;;;;;27.10;13.77;;;3.70;99.90;;;;;;5078539;28;20055;-58
2022/12/03 09:52:45;;;;;;;25.45;13.50;;;3.70;99.90;;;;;;5062581;28;20115;-58
2022/12/03 09:55:24;;;;;;;25.40;13.90;;;3.70;99.90;;;;;;5049339;28;20130;-58
2022/12/03 09:57:54;;;;;;;28.92;15.65;;;3.70;99.90;;;;;;5062606;28;20036;-57
2022/12/03 10:00:27;;;;;;;24.02;14.45;;;3.70;99.90;;;;;;5053909;28;20086;-58
2022/12/03 10:03:00;;;;;;;26.85;15.23;;;3.70;99.90;;;;;;5077147;28;20119;-57
2022/12/03 10:05:28;;;;;;;28.67;15.02;;;3.60;99.90;;;;;;5053942;28;20047;-56
2022/12/03 10:08:04;;;;;;;26.50;14.15;;;3.60;99.90;;;;;;5080499;28;20131;-56
2022/12/03 10:10:30;;;;;;;28.33;15.77;;;3.60;99.90;;;;;;5062984;28;20534;-57
2022/12/03 10:12:55;;;;;;;27.45;15.07;;;3.40;99.90;;;;;;5062379;28;20139;-57
2022/12/03 10:15:23;;;;;;;32.47;15.88;;;3.60;99.90;;;;;;5078083;28;20059;-57
2022/12/03 10:17:51;;;;;;;28.85;15.82;;;3.50;99.90;;;;;;5058830;28;20560;-57
2022/12/03 10:20:22;;;;;;;27.83;15.35;;;3.60;99.90;;;;;;5057361;28;20043;-58
2022/12/03 10:22:48;;;;;;;26.00;14.75;;;3.50;99.90;;;;;;5076782;28;20036;-57
2022/12/03 10:25:17;;;;;;;27.67;15.43;;;3.50;99.90;;;;;;5063380;28;20379;-57
2022/12/03 10:28:01;;;;;;;23.85;14.50;;;3.60;99.90;;;;;;5053997;28;20037;-57
2022/12/03 10:30:27;;;;;;;33.13;16.05;;;3.50;99.90;;;;;;5063141;28;20042;-58
2022/12/03 10:32:57;;;;;;;29.42;15.35;;;3.50;99.90;;;;;;5075848;28;20670;-54
2022/12/03 10:35:38;;;;;;;27.70;15.60;;;3.50;99.90;;;;;;5059324;28;20059;-57
2022/12/03 10:38:06;;;;;;;27.20;15.07;;;3.50;99.90;;;;;;5059354;28;20063;-59
2022/12/03 10:40:33;;;;;;;27.45;14.93;;;3.50;99.90;;;;;;5060136;28;20052;-57
2022/12/03 10:43:25;;;;;;;29.48;16.25;;;3.60;99.90;;;;;;5062842;28;20036;-58
2022/12/03 10:46:10;;;;;;;27.00;14.52;;;3.60;99.90;;;;;;5055333;28;20040;-58
2022/12/03 10:48:37;;;;;;;30.30;16.30;;;3.60;99.90;;;;;;5054979;28;20271;-57
2022/12/03 10:51:20;;;;;;;27.23;14.50;;;3.60;99.90;;;;;;5074111;28;20051;-56
2022/12/03 10:53:48;;;;;;;26.90;16.40;;;3.60;99.90;;;;;;5049042;28;20553;-58
2022/12/03 10:56:22;;;;;;;29.70;17.38;;;3.60;99.90;;;;;;5049293;28;20055;-57
2022/12/03 10:58:48;;;;;;;25.85;14.98;;;3.60;99.90;;;;;;5045174;28;20894;-54
2022/12/03 11:01:20;;;;;;;26.42;14.93;;;3.60;99.90;;;;;;5071921;28;20044;-56
2022/12/03 11:03:46;;;;;;;29.70;15.45;;;3.60;99.90;;;;;;5061400;28;20113;-57
2022/12/03 11:06:21;;;;;;;27.50;14.20;;;3.70;99.90;;;;;;5059054;28;20048;-58
2022/12/03 11:08:51;;;;;;;28.73;15.25;;;3.80;99.90;;;;;;5076409;28;20052;-58
2022/12/03 11:11:29;;;;;;;25.85;15.38;;;3.70;99.90;;;;;;5079763;28;20123;-57
2022/12/03 11:13:58;;;;;;;26.60;13.90;;;3.70;99.90;;;;;;5057438;28;20040;-56
2022/12/03 11:16:39;;;;;;;27.80;15.32;;;3.60;99.90;;;;;;5056021;28;20101;-57
2022/12/03 11:19:38;;;;;;;25.83;14.60;;;3.60;99.90;;;;;;5056570;28;20037;-58
2022/12/03 11:22:03;;;;;;;24.85;14.05;;;3.50;99.90;;;;;;5041470;28;20044;-57
2022/12/03 11:24:34;;;;;;;26.60;13.43;;;3.50;99.90;;;;;;5051436;28;20387;-57
2022/12/03 11:27:00;;;;;;;29.50;16.08;;;3.50;99.90;;;;;;5042138;28;20052;-57
2022/12/03 11:29:54;;;;;;;29.85;15.55;;;3.50;99.90;;;;;;5060528;28;20089;-58
2022/12/03 11:32:42;;;;;;;27.65;15.70;;;3.50;99.90;;;;;;5053615;28;20044;-59
2022/12/03 11:35:14;;;;;;;30.90;15.88;;;3.50;99.90;;;;;;5077426;28;20448;-56
2022/12/03 11:37:39;;;;;;;24.10;13.93;;;3.50;99.90;;;;;;5053487;28;20041;-58
2022/12/03 11:40:17;;;;;;;26.13;14.07;;;3.50;99.90;;;;;;5056707;28;20105;-58
2022/12/03 11:42:44;;;;;;;25.23;14.35;;;3.50;99.90;;;;;;5060272;28;20040;-57
2022/12/03 11:45:30;;;;;;;22.88;14.48;;;3.50;99.90;;;;;;5076225;28;20175;-58
2022/12/03 11:47:58;;;;;;;28.38;15.55;;;3.50;99.90;;;;;;5042571;28;20039;-57
2022/12/03 11:50:37;;;;;;;30.75;15.23;;;3.50;99.90;;;;;;5056200;28;20286;-59
2022/12/03 11:53:22;;;;;;;30.35;15.88;;;3.50;99.90;;;;;;5075279;28;20067;-58
2022/12/03 11:56:05;;;;;;;27.98;15.18;;;3.50;99.90;;;;;;5059945;28;20036;-58
2022/12/03 11:58:32;;;;;;;29.23;15.70;;;3.50;99.90;;;;;;5059358;28;20035;-57
2022/12/03 12:01:00;;;;;;;28.05;15.82;;;3.50;99.90;;;;;;5075331;28;20035;-57
2022/12/03 12:03:31;;;;;;;28.65;14.90;;;3.50;99.90;;;;;;5073192;28;20037;-57
2022/12/03 12:06:01;;;;;;;25.90;14.45;;;3.50;99.90;;;;;;5057523;28;20048;-56
2022/12/03 12:08:26;;;;;;;30.70;15.80;;;3.60;99.90;;;;;;5046049;28;20169;-56
2022/12/03 12:10:52;;;;;;;31.25;17.95;;;3.60;99.90;;;;;;5054273;28;20135;-57
2022/12/03 12:13:24;;;;;;;38.58;19.95;;;3.60;99.90;;;;;;5038087;28;20048;-57
2022/12/03 12:15:49;;;;;;;45.95;22.85;;;3.60;99.90;;;;;;5056171;28;20097;-56
2022/12/03 12:18:34;;;;;;;33.75;17.77;;;3.60;99.90;;;;;;5056457;28;20032;-59
2022/12/03 12:21:41;;;;;;;26.13;14.00;;;3.60;99.90;;;;;;5069962;28;20158;-58
2022/12/03 12:24:28;;;;;;;27.63;15.02;;;3.60;99.90;;;;;;5056975;28;20044;-58
2022/12/03 12:27:05;;;;;;;30.90;17.33;;;3.60;99.90;;;;;;5058432;28;20048;-58
2022/12/03 12:29:31;;;;;;;27.10;15.25;;;3.60;99.90;;;;;;5047147;28;20644;-58
2022/12/03 12:32:19;;;;;;;30.00;15.45;;;3.50;99.90;;;;;;5030859;28;20580;-57
2022/12/03 12:34:51;;;;;;;26.67;15.25;;;3.50;99.90;;;;;;5042714;28;20545;-58
2022/12/03 12:37:36;;;;;;;27.85;14.98;;;3.50;99.90;;;;;;5040449;28;20124;-58
2022/12/03 12:40:12;;;;;;;28.85;16.38;;;3.50;99.90;;;;;;5069045;22;20138;-57
2022/12/03 12:42:48;;;;;;;32.97;17.95;;;3.50;99.90;;;;;;5033819;28;20502;-57
2022/12/03 12:45:22;;;;;;;29.15;15.75;;;3.50;99.90;;;;;;5039531;28;20508;-57
2022/12/03 12:48:09;;;;;;;28.85;15.57;;;3.50;99.90;;;;;;5042084;28;20033;-58
2022/12/03 12:50:37;;;;;;;29.10;15.48;;;3.50;99.90;;;;;;5040662;28;20138;-58
2022/12/03 12:53:18;;;;;;;32.45;16.42;;;3.50;99.90;;;;;;5037309;28;20143;-58
2022/12/03 12:55:44;;;;;;;32.22;16.35;;;3.50;99.90;;;;;;5025864;28;20044;-59
2022/12/03 12:58:14;;;;;;;28.17;16.02;;;3.40;99.90;;;;;;5036024;28;20377;-59
2022/12/03 13:00:41;;;;;;;29.25;15.77;;;3.40;99.90;;;;;;5057534;28;20036;-59